sensor_id;sensor_type;location;lat;lon;timestamp;P1;durP1;ratioP1;P2;durP2;ratioP2
21148;SDS011;10732;51.472;6.466;2023-02-15T00:01:36;43.37;;;28.43;;
21148;SDS011;10732;51.472;6.466;2023-02-15T00:04:02;48.67;;;29.57;;
21148;SDS011;10732;51.472;6.466;2023-02-15T00:06:28;50.37;;;29.83;;
21148;SDS011;10732;51.472;6.466;2023-02-15T00:08:54;48.97;;;29.70;;
21148;SDS011;10732;51.472;6.466;2023-02-15T00:11:20;46.00;;;28.53;;
21148;SDS011;10732;51.472;6.466;2023-02-15T00:14:05;48.30;;;31.87;;
21148;SDS011;10732;51.472;6.466;2023-02-15T00:16:31;58.93;;;37.83;;
21148;SDS011;10732;51.472;6.466;2023-02-15T00:18:57;60.17;;;38.63;;
21148;SDS011;10732;51.472;6.466;2023-02-15T00:21:26;61.90;;;39.27;;
21148;SDS011;10732;51.472;6.466;2023-02-15T00:23:53;73.27;;;43.60;;
21148;SDS011;10732;51.472;6.466;2023-02-15T00:26:18;71.70;;;42.43;;
21148;SDS011;10732;51.472;6.466;2023-02-15T00:28:44;71.17;;;39.90;;
21148;SDS011;10732;51.472;6.466;2023-02-15T00:31:10;69.50;;;38.23;;
21148;SDS011;10732;51.472;6.466;2023-02-15T00:33:37;68.37;;;38.47;;
21148;SDS011;10732;51.472;6.466;2023-02-15T00:36:04;65.53;;;37.87;;
21148;SDS011;10732;51.472;6.466;2023-02-15T00:38:32;69.80;;;38.20;;
21148;SDS011;10732;51.472;6.466;2023-02-15T00:40:59;68.90;;;39.93;;
21148;SDS011;10732;51.472;6.466;2023-02-15T00:43:26;72.23;;;39.70;;
21148;SDS011;10732;51.472;6.466;2023-02-15T00:45:53;69.47;;;38.92;;
21148;SDS011;10732;51.472;6.466;2023-02-15T00:48:19;80.60;;;41.67;;
21148;SDS011;10732;51.472;6.466;2023-02-15T00:50:46;70.33;;;38.67;;
21148;SDS011;10732;51.472;6.466;2023-02-15T00:53:16;73.65;;;40.75;;
21148;SDS011;10732;51.472;6.466;2023-02-15T00:55:42;68.40;;;38.03;;
21148;SDS011;10732;51.472;6.466;2023-02-15T00:58:09;68.35;;;38.40;;
21148;SDS011;10732;51.472;6.466;2023-02-15T01:00:35;65.03;;;36.37;;
21148;SDS011;10732;51.472;6.466;2023-02-15T01:03:01;62.90;;;37.23;;
21148;SDS011;10732;51.472;6.466;2023-02-15T01:05:27;64.05;;;37.28;;
21148;SDS011;10732;51.472;6.466;2023-02-15T01:07:54;69.03;;;37.40;;
21148;SDS011;10732;51.472;6.466;2023-02-15T01:10:20;64.30;;;36.33;;
21148;SDS011;10732;51.472;6.466;2023-02-15T01:12:46;61.90;;;35.67;;
21148;SDS011;10732;51.472;6.466;2023-02-15T01:15:11;69.93;;;36.30;;
21148;SDS011;10732;51.472;6.466;2023-02-15T01:17:37;60.53;;;36.03;;
21148;SDS011;10732;51.472;6.466;2023-02-15T01:20:02;67.82;;;37.75;;
21148;SDS011;10732;51.472;6.466;2023-02-15T01:22:28;66.53;;;38.00;;
21148;SDS011;10732;51.472;6.466;2023-02-15T01:24:54;72.28;;;39.33;;
21148;SDS011;10732;51.472;6.466;2023-02-15T01:27:19;67.77;;;37.53;;
21148;SDS011;10732;51.472;6.466;2023-02-15T01:29:45;62.23;;;35.53;;
21148;SDS011;10732;51.472;6.466;2023-02-15T01:32:12;61.15;;;34.55;;
21148;SDS011;10732;51.472;6.466;2023-02-15T01:34:37;59.37;;;35.07;;
21148;SDS011;10732;51.472;6.466;2023-02-15T01:37:03;64.20;;;36.70;;
21148;SDS011;10732;51.472;6.466;2023-02-15T01:39:28;57.93;;;34.87;;
21148;SDS011;10732;51.472;6.466;2023-02-15T01:41:54;61.73;;;36.83;;
21148;SDS011;10732;51.472;6.466;2023-02-15T01:44:40;60.00;;;34.00;;
21148;SDS011;10732;51.472;6.466;2023-02-15T01:47:54;58.30;;;34.70;;
21148;SDS011;10732;51.472;6.466;2023-02-15T01:52:49;60.37;;;39.03;;
21148;SDS011;10732;51.472;6.466;2023-02-15T01:55:19;62.00;;;37.73;;
21148;SDS011;10732;51.472;6.466;2023-02-15T01:57:47;63.27;;;38.63;;
21148;SDS011;10732;51.472;6.466;2023-02-15T02:00:14;67.40;;;40.53;;
21148;SDS011;10732;51.472;6.466;2023-02-15T02:02:42;71.37;;;41.17;;
21148;SDS011;10732;51.472;6.466;2023-02-15T02:05:10;70.37;;;41.70;;
21148;SDS011;10732;51.472;6.466;2023-02-15T02:07:37;74.53;;;44.70;;
21148;SDS011;10732;51.472;6.466;2023-02-15T02:10:06;82.90;;;47.63;;
21148;SDS011;10732;51.472;6.466;2023-02-15T02:12:34;93.70;;;52.07;;
21148;SDS011;10732;51.472;6.466;2023-02-15T02:15:02;91.60;;;50.17;;
21148;SDS011;10732;51.472;6.466;2023-02-15T02:20:51;86.40;;;43.73;;
21148;SDS011;10732;51.472;6.466;2023-02-15T02:34:04;80.87;;;47.70;;
21148;SDS011;10732;51.472;6.466;2023-02-15T02:39:43;93.43;;;51.50;;
21148;SDS011;10732;51.472;6.466;2023-02-15T02:42:25;92.10;;;49.27;;
21148;SDS011;10732;51.472;6.466;2023-02-15T02:47:38;98.57;;;53.47;;
21148;SDS011;10732;51.472;6.466;2023-02-15T02:50:13;96.07;;;49.80;;
21148;SDS011;10732;51.472;6.466;2023-02-15T02:57:43;94.73;;;46.17;;
21148;SDS011;10732;51.472;6.466;2023-02-15T03:00:17;89.80;;;44.50;;
21148;SDS011;10732;51.472;6.466;2023-02-15T03:02:45;96.20;;;47.57;;
21148;SDS011;10732;51.472;6.466;2023-02-15T03:05:15;88.10;;;48.40;;
21148;SDS011;10732;51.472;6.466;2023-02-15T03:07:44;101.23;;;53.17;;
21148;SDS011;10732;51.472;6.466;2023-02-15T03:10:15;90.13;;;49.17;;
21148;SDS011;10732;51.472;6.466;2023-02-15T03:12:42;93.10;;;50.17;;
21148;SDS011;10732;51.472;6.466;2023-02-15T03:15:21;103.47;;;48.97;;
21148;SDS011;10732;51.472;6.466;2023-02-15T03:17:55;98.67;;;53.10;;
21148;SDS011;10732;51.472;6.466;2023-02-15T03:20:28;99.25;;;53.20;;
21148;SDS011;10732;51.472;6.466;2023-02-15T03:23:00;106.17;;;51.30;;
21148;SDS011;10732;51.472;6.466;2023-02-15T03:25:33;100.73;;;51.10;;
21148;SDS011;10732;51.472;6.466;2023-02-15T03:28:05;97.97;;;50.23;;
21148;SDS011;10732;51.472;6.466;2023-02-15T03:30:33;104.00;;;50.13;;
21148;SDS011;10732;51.472;6.466;2023-02-15T03:33:01;103.03;;;49.77;;
21148;SDS011;10732;51.472;6.466;2023-02-15T03:35:46;97.03;;;49.22;;
21148;SDS011;10732;51.472;6.466;2023-02-15T03:38:20;92.00;;;47.40;;
21148;SDS011;10732;51.472;6.466;2023-02-15T03:40:53;103.60;;;50.43;;
21148;SDS011;10732;51.472;6.466;2023-02-15T03:43:42;94.73;;;48.20;;
21148;SDS011;10732;51.472;6.466;2023-02-15T03:46:23;94.70;;;50.87;;
21148;SDS011;10732;51.472;6.466;2023-02-15T03:49:07;106.77;;;53.03;;
21148;SDS011;10732;51.472;6.466;2023-02-15T03:51:36;95.53;;;51.50;;
21148;SDS011;10732;51.472;6.466;2023-02-15T03:54:09;90.57;;;49.97;;
21148;SDS011;10732;51.472;6.466;2023-02-15T03:56:41;88.97;;;46.63;;
21148;SDS011;10732;51.472;6.466;2023-02-15T03:59:27;98.63;;;52.43;;
21148;SDS011;10732;51.472;6.466;2023-02-15T04:02:25;105.60;;;53.03;;
21148;SDS011;10732;51.472;6.466;2023-02-15T04:05:01;104.73;;;52.87;;
21148;SDS011;10732;51.472;6.466;2023-02-15T04:07:26;107.03;;;55.73;;
21148;SDS011;10732;51.472;6.466;2023-02-15T04:09:52;99.10;;;53.27;;
21148;SDS011;10732;51.472;6.466;2023-02-15T04:12:36;100.20;;;52.37;;
21148;SDS011;10732;51.472;6.466;2023-02-15T04:15:01;100.83;;;51.83;;
21148;SDS011;10732;51.472;6.466;2023-02-15T04:17:45;103.40;;;53.67;;
21148;SDS011;10732;51.472;6.466;2023-02-15T04:20:11;92.27;;;51.93;;
21148;SDS011;10732;51.472;6.466;2023-02-15T04:22:55;97.77;;;52.63;;
21148;SDS011;10732;51.472;6.466;2023-02-15T04:25:39;104.50;;;55.10;;
21148;SDS011;10732;51.472;6.466;2023-02-15T04:28:04;99.33;;;53.33;;
21148;SDS011;10732;51.472;6.466;2023-02-15T04:30:32;105.53;;;55.43;;
21148;SDS011;10732;51.472;6.466;2023-02-15T04:32:57;110.60;;;57.93;;
21148;SDS011;10732;51.472;6.466;2023-02-15T04:35:23;98.83;;;52.00;;
21148;SDS011;10732;51.472;6.466;2023-02-15T04:37:49;106.77;;;56.33;;
21148;SDS011;10732;51.472;6.466;2023-02-15T04:40:15;112.70;;;57.43;;
21148;SDS011;10732;51.472;6.466;2023-02-15T04:42:41;106.80;;;55.97;;
21148;SDS011;10732;51.472;6.466;2023-02-15T04:45:07;103.77;;;54.50;;
21148;SDS011;10732;51.472;6.466;2023-02-15T04:47:33;113.97;;;58.70;;
21148;SDS011;10732;51.472;6.466;2023-02-15T04:49:59;109.47;;;56.93;;
21148;SDS011;10732;51.472;6.466;2023-02-15T04:52:24;119.60;;;57.43;;
21148;SDS011;10732;51.472;6.466;2023-02-15T04:54:50;108.53;;;56.67;;
21148;SDS011;10732;51.472;6.466;2023-02-15T04:57:15;107.33;;;54.80;;
21148;SDS011;10732;51.472;6.466;2023-02-15T04:59:41;115.50;;;58.10;;
21148;SDS011;10732;51.472;6.466;2023-02-15T05:02:06;108.37;;;55.77;;
21148;SDS011;10732;51.472;6.466;2023-02-15T05:04:32;111.97;;;56.83;;
21148;SDS011;10732;51.472;6.466;2023-02-15T05:06:57;128.93;;;64.03;;
21148;SDS011;10732;51.472;6.466;2023-02-15T05:09:23;130.57;;;66.07;;
21148;SDS011;10732;51.472;6.466;2023-02-15T05:11:48;129.93;;;63.97;;
21148;SDS011;10732;51.472;6.466;2023-02-15T05:14:14;135.57;;;66.40;;
21148;SDS011;10732;51.472;6.466;2023-02-15T05:16:39;132.83;;;65.17;;
21148;SDS011;10732;51.472;6.466;2023-02-15T05:19:05;131.60;;;65.27;;
21148;SDS011;10732;51.472;6.466;2023-02-15T05:21:31;135.80;;;64.37;;
21148;SDS011;10732;51.472;6.466;2023-02-15T05:23:57;136.70;;;66.60;;
21148;SDS011;10732;51.472;6.466;2023-02-15T05:26:23;134.30;;;67.10;;
21148;SDS011;10732;51.472;6.466;2023-02-15T05:29:08;131.00;;;63.53;;
21148;SDS011;10732;51.472;6.466;2023-02-15T05:31:35;135.97;;;67.80;;
21148;SDS011;10732;51.472;6.466;2023-02-15T05:34:01;131.00;;;64.60;;
21148;SDS011;10732;51.472;6.466;2023-02-15T05:36:27;137.47;;;66.67;;
21148;SDS011;10732;51.472;6.466;2023-02-15T05:38:53;143.10;;;70.37;;
21148;SDS011;10732;51.472;6.466;2023-02-15T05:41:19;133.17;;;62.03;;
21148;SDS011;10732;51.472;6.466;2023-02-15T05:43:45;143.40;;;69.83;;
21148;SDS011;10732;51.472;6.466;2023-02-15T05:46:11;141.40;;;69.63;;
21148;SDS011;10732;51.472;6.466;2023-02-15T05:48:37;143.30;;;66.87;;
21148;SDS011;10732;51.472;6.466;2023-02-15T05:51:04;133.17;;;63.57;;
21148;SDS011;10732;51.472;6.466;2023-02-15T05:53:35;148.60;;;67.60;;
21148;SDS011;10732;51.472;6.466;2023-02-15T05:56:03;141.40;;;68.47;;
21148;SDS011;10732;51.472;6.466;2023-02-15T05:58:30;138.53;;;66.00;;
21148;SDS011;10732;51.472;6.466;2023-02-15T06:00:57;135.60;;;63.47;;
21148;SDS011;10732;51.472;6.466;2023-02-15T06:03:23;144.77;;;67.13;;
21148;SDS011;10732;51.472;6.466;2023-02-15T06:05:50;150.73;;;73.83;;
21148;SDS011;10732;51.472;6.466;2023-02-15T06:08:16;143.37;;;70.43;;
21148;SDS011;10732;51.472;6.466;2023-02-15T06:10:42;145.33;;;70.13;;
21148;SDS011;10732;51.472;6.466;2023-02-15T06:13:08;139.97;;;69.90;;
21148;SDS011;10732;51.472;6.466;2023-02-15T06:15:34;140.10;;;65.80;;
21148;SDS011;10732;51.472;6.466;2023-02-15T06:17:59;148.93;;;68.73;;
21148;SDS011;10732;51.472;6.466;2023-02-15T06:20:25;141.20;;;66.00;;
21148;SDS011;10732;51.472;6.466;2023-02-15T06:22:50;132.83;;;62.27;;
21148;SDS011;10732;51.472;6.466;2023-02-15T06:25:16;140.07;;;64.23;;
21148;SDS011;10732;51.472;6.466;2023-02-15T06:27:41;143.27;;;66.53;;
21148;SDS011;10732;51.472;6.466;2023-02-15T06:30:08;137.00;;;65.97;;
21148;SDS011;10732;51.472;6.466;2023-02-15T06:32:35;142.73;;;66.20;;
21148;SDS011;10732;51.472;6.466;2023-02-15T06:35:00;145.90;;;67.50;;
21148;SDS011;10732;51.472;6.466;2023-02-15T06:37:26;150.53;;;69.10;;
21148;SDS011;10732;51.472;6.466;2023-02-15T06:39:52;154.30;;;71.83;;
21148;SDS011;10732;51.472;6.466;2023-02-15T06:42:18;150.97;;;67.43;;
21148;SDS011;10732;51.472;6.466;2023-02-15T06:44:43;149.87;;;70.73;;
21148;SDS011;10732;51.472;6.466;2023-02-15T06:47:09;145.80;;;68.50;;
21148;SDS011;10732;51.472;6.466;2023-02-15T06:49:36;136.70;;;67.47;;
21148;SDS011;10732;51.472;6.466;2023-02-15T06:52:01;141.20;;;67.37;;
21148;SDS011;10732;51.472;6.466;2023-02-15T06:54:27;154.40;;;69.00;;
21148;SDS011;10732;51.472;6.466;2023-02-15T06:56:53;139.70;;;70.23;;
21148;SDS011;10732;51.472;6.466;2023-02-15T06:59:18;147.90;;;69.80;;
21148;SDS011;10732;51.472;6.466;2023-02-15T07:01:44;154.03;;;73.93;;
21148;SDS011;10732;51.472;6.466;2023-02-15T07:04:09;146.60;;;72.53;;
21148;SDS011;10732;51.472;6.466;2023-02-15T07:06:35;138.10;;;68.03;;
21148;SDS011;10732;51.472;6.466;2023-02-15T07:09:01;137.20;;;63.83;;
21148;SDS011;10732;51.472;6.466;2023-02-15T07:11:26;144.17;;;62.80;;
21148;SDS011;10732;51.472;6.466;2023-02-15T07:14:10;139.07;;;63.87;;
21148;SDS011;10732;51.472;6.466;2023-02-15T07:16:36;132.33;;;62.37;;
21148;SDS011;10732;51.472;6.466;2023-02-15T07:19:01;124.57;;;55.47;;
21148;SDS011;10732;51.472;6.466;2023-02-15T07:21:27;125.63;;;55.87;;
21148;SDS011;10732;51.472;6.466;2023-02-15T07:23:55;120.67;;;56.90;;
21148;SDS011;10732;51.472;6.466;2023-02-15T07:26:21;116.00;;;53.80;;
21148;SDS011;10732;51.472;6.466;2023-02-15T07:28:47;110.17;;;49.40;;
21148;SDS011;10732;51.472;6.466;2023-02-15T07:31:13;103.77;;;50.87;;
21148;SDS011;10732;51.472;6.466;2023-02-15T07:33:38;105.33;;;50.13;;
21148;SDS011;10732;51.472;6.466;2023-02-15T07:36:04;95.10;;;46.77;;
21148;SDS011;10732;51.472;6.466;2023-02-15T07:38:34;98.13;;;48.73;;
21148;SDS011;10732;51.472;6.466;2023-02-15T07:41:02;89.97;;;48.17;;
21148;SDS011;10732;51.472;6.466;2023-02-15T07:43:29;91.43;;;47.23;;
21148;SDS011;10732;51.472;6.466;2023-02-15T07:45:58;86.38;;;43.35;;
21148;SDS011;10732;51.472;6.466;2023-02-15T07:48:25;76.17;;;41.03;;
21148;SDS011;10732;51.472;6.466;2023-02-15T07:50:51;90.03;;;44.57;;
21148;SDS011;10732;51.472;6.466;2023-02-15T07:53:17;76.13;;;41.40;;
21148;SDS011;10732;51.472;6.466;2023-02-15T07:55:42;72.82;;;40.08;;
21148;SDS011;10732;51.472;6.466;2023-02-15T07:58:08;65.37;;;36.87;;
21148;SDS011;10732;51.472;6.466;2023-02-15T08:00:33;69.53;;;37.33;;
21148;SDS011;10732;51.472;6.466;2023-02-15T08:03:19;63.72;;;36.20;;
21148;SDS011;10732;51.472;6.466;2023-02-15T08:05:44;58.93;;;35.13;;
21148;SDS011;10732;51.472;6.466;2023-02-15T08:08:10;57.50;;;35.38;;
21148;SDS011;10732;51.472;6.466;2023-02-15T08:11:01;57.67;;;33.47;;
21148;SDS011;10732;51.472;6.466;2023-02-15T08:14:16;56.88;;;33.42;;
21148;SDS011;10732;51.472;6.466;2023-02-15T08:16:43;52.95;;;33.05;;
21148;SDS011;10732;51.472;6.466;2023-02-15T08:19:17;49.97;;;30.35;;
21148;SDS011;10732;51.472;6.466;2023-02-15T08:21:48;54.05;;;30.40;;
21148;SDS011;10732;51.472;6.466;2023-02-15T08:24:16;43.10;;;28.25;;
21148;SDS011;10732;51.472;6.466;2023-02-15T08:26:44;41.30;;;26.88;;
21148;SDS011;10732;51.472;6.466;2023-02-15T08:29:11;40.40;;;26.52;;
21148;SDS011;10732;51.472;6.466;2023-02-15T08:31:38;31.98;;;21.98;;
21148;SDS011;10732;51.472;6.466;2023-02-15T08:34:05;30.95;;;20.67;;
21148;SDS011;10732;51.472;6.466;2023-02-15T08:36:32;27.83;;;18.75;;
21148;SDS011;10732;51.472;6.466;2023-02-15T08:38:58;26.63;;;19.30;;
21148;SDS011;10732;51.472;6.466;2023-02-15T08:41:29;24.83;;;18.15;;
21148;SDS011;10732;51.472;6.466;2023-02-15T08:43:57;26.10;;;17.98;;
21148;SDS011;10732;51.472;6.466;2023-02-15T08:46:25;25.95;;;18.50;;
21148;SDS011;10732;51.472;6.466;2023-02-15T08:48:53;29.00;;;19.05;;
21148;SDS011;10732;51.472;6.466;2023-02-15T08:51:20;26.63;;;18.77;;
21148;SDS011;10732;51.472;6.466;2023-02-15T08:53:51;23.05;;;17.85;;
21148;SDS011;10732;51.472;6.466;2023-02-15T08:56:18;25.60;;;18.50;;
21148;SDS011;10732;51.472;6.466;2023-02-15T08:58:46;25.73;;;18.13;;
21148;SDS011;10732;51.472;6.466;2023-02-15T09:01:21;23.33;;;18.83;;
21148;SDS011;10732;51.472;6.466;2023-02-15T09:03:49;23.20;;;17.77;;
21148;SDS011;10732;51.472;6.466;2023-02-15T09:06:19;24.27;;;20.73;;
21148;SDS011;10732;51.472;6.466;2023-02-15T09:08:45;24.70;;;18.35;;
21148;SDS011;10732;51.472;6.466;2023-02-15T09:11:12;23.27;;;17.95;;
21148;SDS011;10732;51.472;6.466;2023-02-15T09:13:47;24.60;;;17.77;;
21148;SDS011;10732;51.472;6.466;2023-02-15T09:16:14;25.83;;;18.52;;
21148;SDS011;10732;51.472;6.466;2023-02-15T09:18:41;22.85;;;17.92;;
21148;SDS011;10732;51.472;6.466;2023-02-15T09:21:09;22.90;;;17.90;;
21148;SDS011;10732;51.472;6.466;2023-02-15T09:23:38;26.38;;;18.15;;
21148;SDS011;10732;51.472;6.466;2023-02-15T09:26:08;21.33;;;17.27;;
21148;SDS011;10732;51.472;6.466;2023-02-15T09:28:35;24.88;;;18.05;;
21148;SDS011;10732;51.472;6.466;2023-02-15T09:33:40;25.02;;;18.15;;
21148;SDS011;10732;51.472;6.466;2023-02-15T09:39:10;22.83;;;17.55;;
21148;SDS011;10732;51.472;6.466;2023-02-15T09:44:42;23.80;;;17.00;;
21148;SDS011;10732;51.472;6.466;2023-02-15T10:12:02;23.15;;;16.35;;
21148;SDS011;10732;51.472;6.466;2023-02-15T10:17:38;22.65;;;16.90;;
21148;SDS011;10732;51.472;6.466;2023-02-15T10:26:10;22.45;;;16.98;;
21148;SDS011;10732;51.472;6.466;2023-02-15T10:29:25;23.70;;;17.05;;
21148;SDS011;10732;51.472;6.466;2023-02-15T10:31:45;20.40;;;15.70;;
21148;SDS011;10732;51.472;6.466;2023-02-15T10:34:18;21.23;;;16.45;;
21148;SDS011;10732;51.472;6.466;2023-02-15T10:52:03;21.15;;;14.98;;
21148;SDS011;10732;51.472;6.466;2023-02-15T10:55:02;21.60;;;15.38;;
21148;SDS011;10732;51.472;6.466;2023-02-15T10:57:56;21.85;;;14.82;;
21148;SDS011;10732;51.472;6.466;2023-02-15T11:00:33;22.13;;;15.27;;
21148;SDS011;10732;51.472;6.466;2023-02-15T11:08:14;23.23;;;14.70;;
21148;SDS011;10732;51.472;6.466;2023-02-15T11:10:51;21.05;;;15.82;;
21148;SDS011;10732;51.472;6.466;2023-02-15T11:13:22;21.13;;;15.20;;
21148;SDS011;10732;51.472;6.466;2023-02-15T11:20:58;20.65;;;15.10;;
21148;SDS011;10732;51.472;6.466;2023-02-15T11:23:25;21.58;;;15.43;;
21148;SDS011;10732;51.472;6.466;2023-02-15T11:25:54;17.90;;;13.75;;
21148;SDS011;10732;51.472;6.466;2023-02-15T11:28:31;21.15;;;15.52;;
21148;SDS011;10732;51.472;6.466;2023-02-15T11:31:02;21.13;;;15.27;;
21148;SDS011;10732;51.472;6.466;2023-02-15T11:36:37;22.63;;;15.60;;
21148;SDS011;10732;51.472;6.466;2023-02-15T11:39:08;21.33;;;15.25;;
21148;SDS011;10732;51.472;6.466;2023-02-15T11:41:37;23.50;;;15.52;;
21148;SDS011;10732;51.472;6.466;2023-02-15T11:47:02;20.55;;;14.85;;
21148;SDS011;10732;51.472;6.466;2023-02-15T11:51:57;21.52;;;14.52;;
21148;SDS011;10732;51.472;6.466;2023-02-15T11:54:26;19.80;;;15.20;;
21148;SDS011;10732;51.472;6.466;2023-02-15T11:56:58;21.40;;;15.32;;
21148;SDS011;10732;51.472;6.466;2023-02-15T11:59:31;22.10;;;15.50;;
21148;SDS011;10732;51.472;6.466;2023-02-15T12:02:01;21.33;;;15.13;;
21148;SDS011;10732;51.472;6.466;2023-02-15T12:04:31;23.13;;;15.40;;
21148;SDS011;10732;51.472;6.466;2023-02-15T12:07:21;21.45;;;15.23;;
21148;SDS011;10732;51.472;6.466;2023-02-15T12:12:28;21.42;;;14.65;;
21148;SDS011;10732;51.472;6.466;2023-02-15T12:14:56;19.35;;;15.13;;
21148;SDS011;10732;51.472;6.466;2023-02-15T12:17:24;22.27;;;15.20;;
21148;SDS011;10732;51.472;6.466;2023-02-15T12:19:54;22.40;;;15.93;;
21148;SDS011;10732;51.472;6.466;2023-02-15T12:22:27;22.23;;;15.55;;
21148;SDS011;10732;51.472;6.466;2023-02-15T12:24:55;22.33;;;15.65;;
21148;SDS011;10732;51.472;6.466;2023-02-15T12:27:26;21.98;;;15.40;;
21148;SDS011;10732;51.472;6.466;2023-02-15T12:30:01;23.80;;;15.93;;
21148;SDS011;10732;51.472;6.466;2023-02-15T12:32:36;24.23;;;15.70;;
21148;SDS011;10732;51.472;6.466;2023-02-15T12:35:35;24.33;;;16.52;;
21148;SDS011;10732;51.472;6.466;2023-02-15T12:38:05;24.75;;;15.95;;
21148;SDS011;10732;51.472;6.466;2023-02-15T12:41:01;26.02;;;16.42;;
21148;SDS011;10732;51.472;6.466;2023-02-15T12:43:46;26.75;;;16.52;;
21148;SDS011;10732;51.472;6.466;2023-02-15T12:51:53;24.13;;;15.95;;
21148;SDS011;10732;51.472;6.466;2023-02-15T12:54:25;26.42;;;16.63;;
21148;SDS011;10732;51.472;6.466;2023-02-15T12:56:59;20.23;;;14.52;;
21148;SDS011;10732;51.472;6.466;2023-02-15T13:00:36;23.33;;;15.85;;
21148;SDS011;10732;51.472;6.466;2023-02-15T13:02:43;24.75;;;16.13;;
21148;SDS011;10732;51.472;6.466;2023-02-15T13:08:04;25.00;;;14.98;;
21148;SDS011;10732;51.472;6.466;2023-02-15T13:10:35;24.63;;;15.63;;
21148;SDS011;10732;51.472;6.466;2023-02-15T13:13:11;26.08;;;16.15;;
21148;SDS011;10732;51.472;6.466;2023-02-15T13:15:46;26.50;;;15.85;;
21148;SDS011;10732;51.472;6.466;2023-02-15T13:18:17;24.65;;;15.50;;
21148;SDS011;10732;51.472;6.466;2023-02-15T13:21:20;24.52;;;16.17;;
21148;SDS011;10732;51.472;6.466;2023-02-15T13:23:47;24.52;;;15.75;;
21148;SDS011;10732;51.472;6.466;2023-02-15T13:26:18;28.00;;;15.75;;
21148;SDS011;10732;51.472;6.466;2023-02-15T13:28:47;22.67;;;15.45;;
21148;SDS011;10732;51.472;6.466;2023-02-15T13:31:22;22.95;;;15.45;;
21148;SDS011;10732;51.472;6.466;2023-02-15T13:34:00;24.40;;;16.00;;
21148;SDS011;10732;51.472;6.466;2023-02-15T13:36:49;23.85;;;15.60;;
21148;SDS011;10732;51.472;6.466;2023-02-15T13:41:57;28.63;;;16.25;;
21148;SDS011;10732;51.472;6.466;2023-02-15T13:52:39;21.23;;;15.82;;
21148;SDS011;10732;51.472;6.466;2023-02-15T13:55:21;26.45;;;17.50;;
21148;SDS011;10732;51.472;6.466;2023-02-15T13:58:08;21.95;;;15.55;;
21148;SDS011;10732;51.472;6.466;2023-02-15T14:03:32;21.73;;;15.85;;
21148;SDS011;10732;51.472;6.466;2023-02-15T14:09:16;25.25;;;16.02;;
21148;SDS011;10732;51.472;6.466;2023-02-15T14:18:03;26.35;;;16.10;;
21148;SDS011;10732;51.472;6.466;2023-02-15T14:20:44;28.08;;;17.58;;
21148;SDS011;10732;51.472;6.466;2023-02-15T14:23:35;35.10;;;17.30;;
21148;SDS011;10732;51.472;6.466;2023-02-15T14:29:15;28.65;;;17.08;;
21148;SDS011;10732;51.472;6.466;2023-02-15T14:31:47;27.73;;;16.52;;
21148;SDS011;10732;51.472;6.466;2023-02-15T14:34:24;26.67;;;16.77;;
21148;SDS011;10732;51.472;6.466;2023-02-15T14:37:02;21.05;;;15.40;;
21148;SDS011;10732;51.472;6.466;2023-02-15T14:45:30;26.15;;;17.20;;
21148;SDS011;10732;51.472;6.466;2023-02-15T14:48:21;22.27;;;15.85;;
21148;SDS011;10732;51.472;6.466;2023-02-15T14:50:55;23.35;;;15.57;;
21148;SDS011;10732;51.472;6.466;2023-02-15T14:56:05;25.52;;;16.10;;
21148;SDS011;10732;51.472;6.466;2023-02-15T14:58:34;27.17;;;16.23;;
21148;SDS011;10732;51.472;6.466;2023-02-15T15:01:06;25.38;;;16.02;;
21148;SDS011;10732;51.472;6.466;2023-02-15T15:03:34;22.80;;;15.07;;
21148;SDS011;10732;51.472;6.466;2023-02-15T15:06:01;22.75;;;15.88;;
21148;SDS011;10732;51.472;6.466;2023-02-15T15:08:33;26.13;;;15.45;;
21148;SDS011;10732;51.472;6.466;2023-02-15T15:11:36;22.48;;;15.18;;
21148;SDS011;10732;51.472;6.466;2023-02-15T15:13:54;22.38;;;15.43;;
21148;SDS011;10732;51.472;6.466;2023-02-15T15:17:08;25.73;;;15.75;;
21148;SDS011;10732;51.472;6.466;2023-02-15T15:22:22;23.73;;;15.32;;
21148;SDS011;10732;51.472;6.466;2023-02-15T15:24:51;23.27;;;15.32;;
21148;SDS011;10732;51.472;6.466;2023-02-15T15:35:34;27.60;;;16.48;;
21148;SDS011;10732;51.472;6.466;2023-02-15T15:41:16;23.25;;;14.38;;
21148;SDS011;10732;51.472;6.466;2023-02-15T15:49:46;22.65;;;14.30;;
21148;SDS011;10732;51.472;6.466;2023-02-15T15:52:13;22.70;;;14.80;;
21148;SDS011;10732;51.472;6.466;2023-02-15T15:54:42;23.60;;;15.50;;
21148;SDS011;10732;51.472;6.466;2023-02-15T15:59:59;23.52;;;15.20;;
21148;SDS011;10732;51.472;6.466;2023-02-15T16:02:26;23.98;;;15.52;;
21148;SDS011;10732;51.472;6.466;2023-02-15T16:04:52;23.02;;;14.75;;
21148;SDS011;10732;51.472;6.466;2023-02-15T16:12:30;20.30;;;14.88;;
21148;SDS011;10732;51.472;6.466;2023-02-15T16:14:57;25.38;;;16.05;;
21148;SDS011;10732;51.472;6.466;2023-02-15T16:17:30;21.77;;;14.25;;
21148;SDS011;10732;51.472;6.466;2023-02-15T16:20:00;27.00;;;16.30;;
21148;SDS011;10732;51.472;6.466;2023-02-15T16:22:32;23.88;;;15.18;;
21148;SDS011;10732;51.472;6.466;2023-02-15T16:28:07;26.60;;;15.23;;
21148;SDS011;10732;51.472;6.466;2023-02-15T16:30:36;22.75;;;15.55;;
21148;SDS011;10732;51.472;6.466;2023-02-15T16:33:14;21.80;;;15.57;;
21148;SDS011;10732;51.472;6.466;2023-02-15T16:35:53;25.75;;;15.52;;
21148;SDS011;10732;51.472;6.466;2023-02-15T16:38:24;22.40;;;15.20;;
21148;SDS011;10732;51.472;6.466;2023-02-15T16:41:21;24.60;;;16.23;;
21148;SDS011;10732;51.472;6.466;2023-02-15T16:43:52;21.17;;;15.73;;
21148;SDS011;10732;51.472;6.466;2023-02-15T16:46:26;26.40;;;16.60;;
21148;SDS011;10732;51.472;6.466;2023-02-15T16:48:58;26.33;;;16.50;;
21148;SDS011;10732;51.472;6.466;2023-02-15T16:51:27;31.15;;;17.20;;
21148;SDS011;10732;51.472;6.466;2023-02-15T16:53:54;25.25;;;15.60;;
21148;SDS011;10732;51.472;6.466;2023-02-15T16:56:23;24.02;;;16.13;;
21148;SDS011;10732;51.472;6.466;2023-02-15T16:58:51;27.67;;;16.83;;
21148;SDS011;10732;51.472;6.466;2023-02-15T17:01:20;22.80;;;15.65;;
21148;SDS011;10732;51.472;6.466;2023-02-15T17:03:49;27.52;;;16.38;;
21148;SDS011;10732;51.472;6.466;2023-02-15T17:08:46;25.67;;;16.42;;
21148;SDS011;10732;51.472;6.466;2023-02-15T17:11:19;23.95;;;16.27;;
21148;SDS011;10732;51.472;6.466;2023-02-15T17:16:31;24.08;;;15.35;;
21148;SDS011;10732;51.472;6.466;2023-02-15T17:18:59;27.35;;;15.65;;
21148;SDS011;10732;51.472;6.466;2023-02-15T17:21:48;23.48;;;16.02;;
21148;SDS011;10732;51.472;6.466;2023-02-15T17:24:17;25.52;;;16.30;;
21148;SDS011;10732;51.472;6.466;2023-02-15T17:26:48;25.08;;;16.35;;
21148;SDS011;10732;51.472;6.466;2023-02-15T17:29:23;26.70;;;16.13;;
21148;SDS011;10732;51.472;6.466;2023-02-15T17:31:56;20.30;;;15.07;;
21148;SDS011;10732;51.472;6.466;2023-02-15T17:37:11;26.35;;;15.95;;
21148;SDS011;10732;51.472;6.466;2023-02-15T17:39:38;25.40;;;16.50;;
21148;SDS011;10732;51.472;6.466;2023-02-15T17:42:05;25.73;;;17.13;;
21148;SDS011;10732;51.472;6.466;2023-02-15T17:44:31;25.25;;;16.30;;
21148;SDS011;10732;51.472;6.466;2023-02-15T17:46:56;25.35;;;16.05;;
21148;SDS011;10732;51.472;6.466;2023-02-15T17:49:23;26.23;;;15.90;;